createdAt,value
2023-05-24T00:00:13.274Z,73.84
2023-05-24T00:03:05.094Z,73.81
2023-05-24T00:05:38.043Z,73.41
2023-05-24T00:08:07.437Z,73.31
2023-05-24T00:10:36.745Z,73.04
2023-05-24T00:13:06.712Z,73.60
2023-05-24T00:15:36.133Z,75.14
2023-05-24T00:18:06.081Z,75.11
2023-05-24T00:20:35.721Z,74.48
2023-05-24T00:23:05.387Z,74.26
2023-05-24T00:25:35.063Z,73.89
2023-05-24T00:28:04.426Z,74.16
2023-05-24T00:30:33.976Z,73.80
2023-05-24T00:33:03.632Z,74.40
2023-05-24T00:35:33.795Z,74.82
2023-05-24T00:38:03.352Z,75.55
2023-05-24T00:40:32.630Z,75.36
2023-05-24T00:43:02.013Z,75.03
2023-05-24T00:45:33.597Z,74.69
2023-05-24T00:48:04.386Z,74.60
2023-05-24T00:50:34.411Z,74.49
2023-05-24T00:53:04.473Z,74.53
2023-05-24T00:55:37.877Z,74.63
2023-05-24T00:58:10.213Z,74.48
2023-05-24T01:00:40.011Z,74.55
2023-05-24T01:03:10.488Z,74.40
2023-05-24T01:05:39.992Z,74.49
2023-05-24T01:08:19.843Z,74.59
2023-05-24T01:11:11.170Z,74.80
2023-05-24T01:14:14.628Z,74.95
2023-05-24T01:17:04.346Z,74.61
2023-05-24T01:19:52.441Z,74.57
2023-05-24T01:22:44.503Z,74.78
2023-05-24T01:25:52.837Z,75.26
2023-05-24T01:28:24.421Z,75.38
2023-05-24T01:30:56.142Z,75.68
2023-05-24T01:33:26.482Z,76.70
2023-05-24T01:35:56.645Z,77.03
2023-05-24T01:38:26.073Z,76.79
2023-05-24T01:41:11.507Z,76.48
2023-05-24T01:43:48.233Z,76.18
2023-05-24T01:46:38.346Z,76.06
2023-05-24T01:49:29.978Z,76.14
2023-05-24T01:52:08.544Z,75.92
2023-05-24T01:54:43.716Z,75.94
2023-05-24T01:57:13.650Z,76.16
2023-05-24T01:59:44.727Z,75.81
2023-05-24T02:02:16.464Z,76.81
2023-05-24T02:04:46.094Z,77.18
2023-05-24T02:07:17.706Z,77.01
2023-05-24T02:09:47.007Z,77.01
2023-05-24T02:12:17.821Z,76.73
2023-05-24T02:14:51.204Z,76.71
2023-05-24T02:17:20.657Z,76.81
2023-05-24T02:19:49.977Z,76.69
2023-05-24T02:22:22.417Z,77.05
2023-05-24T02:24:51.940Z,76.87
2023-05-24T02:27:23.760Z,76.68
2023-05-24T02:29:53.058Z,78.65
2023-05-24T02:32:22.436Z,79.90
2023-05-24T02:34:53.387Z,80.60
2023-05-24T02:37:23.194Z,81.22
2023-05-24T02:39:52.617Z,81.59
2023-05-24T02:42:22.464Z,81.18
2023-05-24T02:44:53.044Z,80.38
2023-05-24T02:47:22.661Z,79.88
2023-05-24T02:49:52.082Z,79.52
2023-05-24T02:52:23.064Z,79.17
2023-05-24T02:54:52.572Z,79.02
2023-05-24T02:57:23.092Z,78.88
2023-05-24T02:59:53.139Z,79.19
2023-05-24T03:02:22.696Z,78.96
2023-05-24T03:04:52.130Z,78.74
2023-05-24T03:07:22.215Z,79.04
2023-05-24T03:09:51.765Z,79.73
2023-05-24T03:12:21.136Z,79.35
2023-05-24T03:14:50.882Z,80.12
2023-05-24T03:17:20.864Z,80.10
2023-05-24T03:19:53.128Z,79.96
2023-05-24T03:22:22.545Z,79.41
2023-05-24T03:24:52.271Z,79.05
2023-05-24T03:27:22.053Z,78.78
2023-05-24T03:29:51.486Z,78.86
2023-05-24T03:32:22.326Z,78.91
2023-05-24T03:34:51.871Z,78.92
2023-05-24T03:37:21.533Z,78.76
2023-05-24T03:39:51.457Z,78.76
2023-05-24T03:42:39.793Z,78.77
2023-05-24T03:45:10.230Z,78.59
2023-05-24T03:47:40.936Z,78.50
2023-05-24T03:50:11.157Z,78.14
2023-05-24T03:52:43.047Z,77.75
2023-05-24T03:55:12.503Z,77.65
2023-05-24T03:57:43.080Z,77.60
2023-05-24T04:00:13.483Z,77.41
2023-05-24T04:02:48.857Z,77.29
2023-05-24T04:05:18.460Z,77.23
2023-05-24T04:07:49.086Z,77.19
2023-05-24T04:10:18.741Z,76.92
2023-05-24T04:12:48.185Z,76.71
2023-05-24T04:15:17.911Z,76.53
2023-05-24T04:17:47.798Z,76.56
2023-05-24T04:20:18.810Z,76.39
2023-05-24T04:22:48.258Z,76.26
2023-05-24T04:25:18.020Z,76.40
2023-05-24T04:27:49.020Z,76.25
2023-05-24T04:30:18.756Z,76.26
2023-05-24T04:32:48.817Z,76.05
2023-05-24T04:35:18.724Z,76.03
2023-05-24T04:37:49.910Z,75.67
2023-05-24T04:40:23.309Z,75.50
2023-05-24T04:42:52.693Z,75.22
2023-05-24T04:45:22.040Z,75.18
2023-05-24T04:47:51.491Z,75.13
2023-05-24T04:50:20.957Z,75.03
2023-05-24T04:52:50.537Z,74.63
2023-05-24T04:55:20.150Z,74.68
2023-05-24T04:57:49.660Z,74.62
2023-05-24T05:00:20.030Z,74.46
2023-05-24T05:02:49.488Z,74.50
2023-05-24T05:05:21.351Z,74.33
2023-05-24T05:07:50.751Z,74.20
2023-05-24T05:10:22.395Z,73.91
2023-05-24T05:12:53.359Z,73.71
2023-05-24T05:15:24.595Z,73.16
2023-05-24T05:17:55.410Z,72.16
2023-05-24T05:20:26.552Z,72.06
2023-05-24T05:22:56.412Z,72.24
2023-05-24T05:25:25.882Z,72.53
2023-05-24T05:27:55.405Z,72.45
2023-05-24T05:30:24.893Z,71.31
2023-05-24T05:32:54.507Z,71.19
2023-05-24T05:35:25.348Z,71.24
2023-05-24T05:37:55.594Z,71.19
2023-05-24T05:40:25.135Z,70.53
2023-05-24T05:42:56.993Z,70.43
2023-05-24T05:45:26.690Z,69.91
2023-05-24T05:47:58.572Z,69.58
2023-05-24T05:50:28.272Z,69.45
2023-05-24T05:52:58.469Z,69.21
2023-05-24T05:55:29.274Z,69.10
2023-05-24T05:58:06.213Z,69.00
2023-05-24T06:00:38.325Z,68.89
2023-05-24T06:03:07.850Z,67.82
2023-05-24T06:05:37.372Z,67.94
2023-05-24T06:08:06.872Z,66.57
2023-05-24T06:10:36.986Z,66.07
2023-05-24T06:13:12.741Z,66.05
2023-05-24T06:15:42.342Z,66.91
2023-05-24T06:18:13.828Z,65.78
2023-05-24T06:20:45.784Z,65.73
2023-05-24T06:29:44.017Z,64.63
2023-05-24T06:32:29.278Z,63.85
2023-05-24T06:47:21.009Z,61.21
2023-05-24T06:53:56.571Z,61.69
2023-05-24T06:58:06.242Z,61.39
2023-05-24T07:02:10.542Z,60.22
2023-05-24T07:05:05.831Z,59.25
2023-05-24T07:07:57.783Z,58.40
2023-05-24T07:11:04.400Z,58.45
2023-05-24T07:13:54.257Z,57.47
2023-05-24T07:16:34.885Z,57.83
2023-05-24T07:19:31.544Z,58.08
2023-05-24T07:22:30.888Z,56.61
2023-05-24T07:25:10.244Z,56.35
2023-05-24T07:27:42.995Z,56.74
2023-05-24T07:30:23.798Z,56.08
2023-05-24T07:33:00.533Z,55.12
2023-05-24T07:35:30.680Z,54.23
2023-05-24T07:38:05.590Z,53.47
2023-05-24T07:40:36.171Z,54.88
2023-05-24T07:43:06.528Z,54.01
2023-05-24T07:45:35.544Z,53.85
2023-05-24T07:48:08.375Z,54.74
2023-05-24T07:51:00.931Z,54.27
2023-05-24T07:53:39.797Z,53.77
2023-05-24T07:59:33.747Z,53.05
2023-05-24T08:02:07.910Z,52.82
2023-05-24T08:04:37.812Z,52.99
2023-05-24T08:07:10.978Z,53.07
2023-05-24T08:09:45.467Z,52.13
2023-05-24T08:12:30.912Z,51.67
2023-05-24T08:15:00.034Z,51.29
2023-05-24T08:17:39.283Z,51.37
2023-05-24T08:20:25.057Z,51.49
2023-05-24T08:22:53.777Z,51.18
2023-05-24T08:25:22.093Z,51.35
2023-05-24T08:27:51.669Z,51.28
2023-05-24T08:30:20.182Z,50.38
2023-05-24T08:32:48.743Z,51.42
2023-05-24T08:35:20.769Z,51.42
2023-05-24T08:37:53.010Z,51.09
2023-05-24T08:40:24.729Z,51.30
2023-05-24T08:42:54.088Z,51.10
2023-05-24T08:45:25.972Z,51.64
2023-05-24T08:47:56.423Z,51.97
2023-05-24T08:50:25.794Z,50.77
2023-05-24T08:52:58.438Z,50.11
2023-05-24T08:55:31.674Z,50.83
2023-05-24T08:58:01.538Z,50.99
2023-05-24T09:00:30.943Z,50.40
2023-05-24T09:03:02.248Z,49.93
2023-05-24T09:05:31.853Z,51.14
2023-05-24T09:08:01.651Z,49.86
2023-05-24T09:10:45.031Z,49.72
2023-05-24T09:13:24.925Z,47.84
2023-05-24T09:15:54.474Z,47.75
2023-05-24T09:18:24.354Z,46.97
2023-05-24T09:20:53.687Z,45.56
2023-05-24T09:23:24.091Z,45.52
2023-05-24T09:25:52.646Z,45.49
2023-05-24T09:28:21.355Z,44.33
2023-05-24T09:31:01.102Z,43.53
2023-05-24T09:33:33.087Z,44.33
2023-05-24T09:36:04.243Z,42.74
2023-05-24T09:38:35.472Z,43.21
2023-05-24T09:41:07.096Z,43.34
2023-05-24T09:43:47.906Z,44.19
2023-05-24T09:46:19.728Z,42.75
2023-05-24T09:49:07.458Z,40.81
2023-05-24T09:51:41.587Z,42.22
2023-05-24T09:54:09.888Z,41.18
2023-05-24T09:56:39.679Z,40.96
2023-05-24T09:59:09.372Z,40.51
2023-05-24T10:01:38.064Z,41.57
2023-05-24T10:04:09.924Z,39.75
2023-05-24T10:06:42.541Z,39.45
2023-05-24T10:09:11.283Z,40.19
2023-05-24T10:11:41.300Z,39.75
2023-05-24T10:14:14.595Z,38.47
2023-05-24T10:16:48.493Z,38.27
2023-05-24T10:19:18.192Z,36.96
2023-05-24T10:21:47.300Z,38.05
2023-05-24T10:24:19.853Z,36.33
2023-05-24T10:26:49.584Z,37.37
2023-05-24T10:29:34.520Z,37.57
2023-05-24T10:32:04.622Z,38.31
2023-05-24T10:34:32.884Z,38.15
2023-05-24T10:37:01.385Z,39.29
2023-05-24T10:39:33.707Z,39.94
2023-05-24T10:42:09.344Z,37.90
2023-05-24T10:44:38.554Z,37.21
2023-05-24T10:47:18.466Z,36.40
2023-05-24T10:49:50.803Z,37.39
2023-05-24T10:52:20.255Z,37.75
2023-05-24T10:55:09.868Z,36.90
2023-05-24T10:57:39.723Z,37.89
2023-05-24T11:00:33.349Z,36.35
2023-05-24T11:03:08.772Z,36.38
2023-05-24T11:05:46.810Z,35.78
2023-05-24T11:08:25.177Z,35.57
2023-05-24T11:11:29.406Z,35.28
2023-05-24T11:14:03.488Z,34.97
2023-05-24T11:16:38.776Z,34.59
2023-05-24T11:19:28.901Z,34.49
2023-05-24T11:22:00.883Z,36.07
2023-05-24T11:24:53.234Z,35.81
2023-05-24T11:27:22.580Z,35.03
2023-05-24T11:29:56.630Z,34.62
2023-05-24T11:32:24.858Z,34.50
2023-05-24T11:34:53.404Z,33.93
2023-05-24T11:37:38.532Z,34.83
2023-05-24T11:40:16.011Z,35.19
2023-05-24T11:42:44.474Z,35.90
2023-05-24T11:45:15.070Z,36.29
2023-05-24T11:47:45.347Z,34.63
2023-05-24T11:50:16.523Z,34.60
2023-05-24T11:52:45.990Z,34.81
2023-05-24T11:55:24.498Z,34.68
2023-05-24T11:58:01.033Z,34.87
2023-05-24T12:00:35.976Z,33.21
2023-05-24T12:03:09.126Z,33.65
2023-05-24T12:05:38.276Z,33.50
2023-05-24T12:08:10.996Z,31.54
2023-05-24T12:10:43.616Z,32.55
2023-05-24T12:13:27.654Z,31.72
2023-05-24T12:15:57.784Z,32.13
2023-05-24T12:18:27.852Z,32.84
2023-05-24T12:20:56.219Z,32.65
2023-05-24T12:23:28.904Z,33.84
2023-05-24T12:26:02.297Z,33.13
2023-05-24T12:28:38.533Z,32.95
2023-05-24T12:31:07.286Z,33.32
2023-05-24T12:33:36.857Z,33.00
2023-05-24T12:36:05.126Z,33.64
2023-05-24T12:38:33.614Z,33.01
2023-05-24T12:43:33.308Z,34.66
2023-05-24T12:46:02.418Z,33.83
2023-05-24T12:48:30.948Z,33.26
2023-05-24T12:50:59.275Z,34.02
2023-05-24T12:53:27.801Z,33.21
2023-05-24T12:55:59.849Z,32.31
2023-05-24T12:58:28.637Z,33.01
2023-05-24T13:00:58.681Z,37.19
2023-05-24T13:03:31.103Z,38.23
2023-05-24T13:06:01.022Z,38.57
2023-05-24T13:08:34.073Z,37.96
2023-05-24T13:11:02.281Z,36.30
2023-05-24T13:13:32.036Z,36.18
2023-05-24T13:16:00.957Z,36.45
2023-05-24T13:18:31.371Z,36.96
2023-05-24T13:21:00.548Z,36.64
2023-05-24T13:23:31.758Z,37.21
2023-05-24T13:26:01.076Z,37.74
2023-05-24T13:28:34.397Z,38.57
2023-05-24T13:31:03.245Z,40.43
2023-05-24T13:33:35.011Z,41.84
2023-05-24T13:36:03.735Z,42.27
2023-05-24T13:38:32.337Z,43.05
2023-05-24T13:41:00.524Z,43.94
2023-05-24T13:43:32.066Z,44.76
2023-05-24T13:46:00.622Z,45.84
2023-05-24T13:48:29.448Z,47.78
2023-05-24T13:50:58.294Z,48.16
2023-05-24T13:53:27.754Z,48.36
2023-05-24T13:55:56.133Z,47.33
2023-05-24T13:58:24.465Z,46.94
2023-05-24T14:00:53.013Z,45.89
2023-05-24T14:03:21.366Z,45.76
2023-05-24T14:05:49.511Z,45.07
2023-05-24T14:08:17.956Z,44.20
2023-05-24T14:10:49.277Z,43.96
2023-05-24T14:13:43.096Z,43.81
2023-05-24T14:16:08.786Z,43.60
2023-05-24T14:18:38.007Z,42.14
2023-05-24T14:21:07.692Z,42.13
2023-05-24T14:23:40.632Z,41.26
2023-05-24T14:26:09.336Z,41.23
2023-05-24T14:28:42.605Z,41.83
2023-05-24T14:31:11.540Z,42.14
2023-05-24T14:33:39.891Z,43.02
2023-05-24T14:36:10.190Z,44.14
2023-05-24T14:38:38.556Z,44.90
2023-05-24T14:41:08.643Z,45.12
2023-05-24T14:43:38.453Z,45.37
2023-05-24T14:46:09.468Z,46.11
2023-05-24T14:48:40.963Z,46.94
2023-05-24T14:51:09.311Z,47.46
2023-05-24T14:53:37.777Z,47.47
2023-05-24T14:56:08.591Z,47.56
2023-05-24T14:58:36.892Z,47.48
2023-05-24T15:01:06.248Z,47.15
2023-05-24T15:03:35.569Z,47.08
2023-05-24T15:06:04.299Z,47.24
2023-05-24T15:08:34.391Z,47.67
2023-05-24T15:11:05.971Z,47.59
2023-05-24T15:13:34.555Z,48.15
2023-05-24T15:16:02.767Z,48.21
2023-05-24T15:18:31.811Z,47.90
2023-05-24T15:21:00.938Z,48.54
2023-05-24T15:23:29.464Z,48.49
2023-05-24T15:25:57.791Z,48.59
2023-05-24T15:28:26.756Z,48.26
2023-05-24T15:30:56.424Z,47.62
2023-05-24T15:33:26.432Z,47.72
2023-05-24T15:36:08.498Z,47.42
2023-05-24T15:38:38.272Z,46.99
2023-05-24T15:41:09.213Z,47.18
2023-05-24T15:43:37.733Z,46.55
2023-05-24T15:46:11.714Z,45.74
2023-05-24T15:49:08.070Z,45.08
2023-05-24T15:52:04.408Z,45.44
2023-05-24T15:54:34.012Z,44.73
2023-05-24T15:57:06.098Z,44.11
2023-05-24T15:59:36.335Z,44.40
2023-05-24T16:02:05.955Z,44.06
2023-05-24T16:04:34.229Z,44.41
2023-05-24T16:07:02.890Z,44.31
2023-05-24T16:09:31.170Z,44.99
2023-05-24T16:14:29.341Z,47.22
2023-05-24T16:16:59.535Z,48.33
2023-05-24T16:19:28.524Z,48.76
2023-05-24T16:21:56.820Z,48.88
2023-05-24T16:24:25.246Z,48.70
2023-05-24T16:26:53.534Z,49.06
2023-05-24T16:29:21.669Z,49.36
2023-05-24T16:31:50.497Z,49.98
2023-05-24T16:34:18.801Z,50.82
2023-05-24T16:36:46.885Z,50.94
2023-05-24T16:39:15.085Z,51.57
2023-05-24T16:41:43.432Z,52.58
2023-05-24T16:44:16.891Z,53.03
2023-05-24T16:46:45.990Z,53.88
2023-05-24T16:49:16.191Z,53.93
2023-05-24T16:51:44.414Z,54.12
2023-05-24T16:54:12.462Z,53.84
2023-05-24T16:56:40.882Z,53.92
2023-05-24T16:59:09.254Z,54.10
2023-05-24T17:01:37.901Z,54.47
2023-05-24T17:04:05.955Z,54.44
2023-05-24T17:06:34.052Z,54.49
2023-05-24T17:09:02.388Z,54.70
2023-05-24T17:11:30.423Z,54.27
2023-05-24T17:14:00.937Z,54.49
2023-05-24T17:16:29.347Z,54.74
2023-05-24T17:18:57.930Z,54.83
2023-05-24T17:21:29.299Z,54.85
2023-05-24T17:23:57.493Z,54.94
2023-05-24T17:26:26.536Z,54.92
2023-05-24T17:28:54.842Z,54.91
2023-05-24T17:31:23.155Z,54.93
2023-05-24T17:33:51.285Z,55.25
2023-05-24T17:36:19.632Z,55.09
2023-05-24T17:38:47.640Z,55.05
2023-05-24T17:41:15.728Z,55.06
2023-05-24T17:43:43.870Z,54.98
2023-05-24T17:46:12.912Z,54.74
2023-05-24T17:48:42.271Z,54.74
2023-05-24T17:51:10.501Z,54.70
2023-05-24T17:53:42.553Z,54.98
2023-05-24T17:56:10.971Z,55.44
2023-05-24T17:58:39.300Z,55.68
2023-05-24T18:01:10.923Z,56.09
2023-05-24T18:03:40.356Z,56.68
2023-05-24T18:06:09.252Z,57.18
2023-05-24T18:08:42.406Z,57.26
2023-05-24T18:11:12.532Z,57.85
2023-05-24T18:13:42.495Z,58.03
2023-05-24T18:16:11.775Z,58.15
2023-05-24T18:18:41.026Z,58.52
2023-05-24T18:21:09.989Z,58.66
2023-05-24T18:23:38.574Z,59.44
2023-05-24T18:26:11.554Z,59.60
2023-05-24T18:28:41.286Z,60.08
2023-05-24T18:31:14.141Z,60.05
2023-05-24T18:33:42.571Z,59.63
2023-05-24T18:36:11.975Z,60.01
2023-05-24T18:38:40.142Z,59.96
2023-05-24T18:41:09.434Z,59.73
2023-05-24T18:43:37.676Z,59.79
2023-05-24T18:46:05.861Z,60.42
2023-05-24T18:48:34.008Z,60.98
2023-05-24T18:51:02.447Z,61.55
2023-05-24T18:53:30.547Z,62.03
2023-05-24T18:55:58.817Z,62.52
2023-05-24T18:58:26.980Z,62.87
2023-05-24T19:00:55.526Z,62.85
2023-05-24T19:03:24.534Z,63.04
2023-05-24T19:05:52.732Z,62.83
2023-05-24T19:08:21.721Z,63.33
2023-05-24T19:10:51.198Z,63.10
2023-05-24T19:13:19.471Z,63.19
2023-05-24T19:15:47.533Z,63.15
2023-05-24T19:18:15.960Z,63.25
2023-05-24T19:20:44.463Z,64.19
2023-05-24T19:23:12.781Z,64.58
2023-05-24T19:25:43.518Z,64.49
2023-05-24T19:28:11.747Z,64.74
2023-05-24T19:30:39.653Z,65.15
2023-05-24T19:33:08.036Z,65.08
2023-05-24T19:35:36.355Z,65.08
2023-05-24T19:38:04.542Z,65.19
2023-05-24T19:40:33.407Z,65.26
2023-05-24T19:43:02.828Z,65.21
2023-05-24T19:45:31.152Z,65.36
2023-05-24T19:47:59.308Z,65.23
2023-05-24T19:50:29.119Z,65.92
2023-05-24T19:52:59.235Z,65.32
2023-05-24T19:55:27.405Z,65.31
2023-05-24T19:57:55.523Z,66.02
2023-05-24T20:00:23.916Z,65.83
2023-05-24T20:02:51.997Z,65.71
2023-05-24T20:05:20.433Z,66.13
2023-05-24T20:07:49.636Z,66.29
2023-05-24T20:10:17.981Z,66.10
2023-05-24T20:12:46.261Z,66.14
2023-05-24T20:15:17.641Z,66.05
2023-05-24T20:17:46.416Z,65.97
2023-05-24T20:20:14.947Z,65.87
2023-05-24T20:22:43.903Z,65.79
2023-05-24T20:25:12.309Z,65.83
2023-05-24T20:27:41.869Z,65.48
2023-05-24T20:30:11.595Z,65.69
2023-05-24T20:32:40.071Z,65.71
2023-05-24T20:35:09.018Z,65.79
2023-05-24T20:37:37.252Z,66.17
2023-05-24T20:40:06.802Z,66.27
2023-05-24T20:42:35.076Z,66.31
2023-05-24T20:45:03.589Z,66.30
2023-05-24T20:47:31.852Z,66.32
2023-05-24T20:49:59.984Z,66.23
2023-05-24T20:52:28.149Z,66.36
2023-05-24T20:54:56.139Z,65.92
2023-05-24T20:57:24.467Z,66.55
2023-05-24T20:59:52.748Z,67.27
2023-05-24T21:02:20.982Z,66.66
2023-05-24T21:04:49.163Z,67.65
2023-05-24T21:07:17.415Z,67.92
2023-05-24T21:09:45.634Z,68.05
2023-05-24T21:12:13.904Z,67.96
2023-05-24T21:14:43.564Z,68.05
2023-05-24T21:17:12.155Z,68.62
2023-05-24T21:19:41.121Z,68.84
2023-05-24T21:22:11.033Z,68.01
2023-05-24T21:24:39.971Z,68.15
2023-05-24T21:27:10.493Z,68.49
2023-05-24T21:29:40.685Z,68.19
2023-05-24T21:32:08.945Z,68.20
2023-05-24T21:34:37.350Z,67.99
2023-05-24T21:37:05.610Z,67.95
2023-05-24T21:39:34.552Z,68.09
2023-05-24T21:42:03.138Z,67.85
2023-05-24T21:44:31.705Z,67.77
2023-05-24T21:47:00.109Z,67.79
2023-05-24T21:49:28.399Z,67.81
2023-05-24T21:51:56.661Z,67.71
2023-05-24T21:54:24.990Z,67.67
2023-05-24T21:56:53.068Z,67.73
2023-05-24T21:59:22.605Z,67.78
2023-05-24T22:01:51.536Z,67.93
2023-05-24T22:04:21.931Z,67.81
2023-05-24T22:06:50.716Z,67.95
2023-05-24T22:09:18.724Z,67.89
2023-05-24T22:11:46.985Z,68.03
2023-05-24T22:14:15.492Z,68.36
2023-05-24T22:16:43.870Z,68.53
2023-05-24T22:19:16.500Z,68.31
2023-05-24T22:21:49.707Z,68.59
2023-05-24T22:24:18.208Z,68.72
2023-05-24T22:26:46.589Z,68.79
2023-05-24T22:29:14.815Z,68.73
2023-05-24T22:31:43.383Z,69.18
2023-05-24T22:34:11.714Z,69.07
2023-05-24T22:36:40.349Z,69.21
2023-05-24T22:39:08.714Z,69.23
2023-05-24T22:41:36.763Z,69.28
2023-05-24T22:44:06.160Z,69.32
2023-05-24T22:46:34.426Z,69.58
2023-05-24T22:49:05.186Z,69.81
2023-05-24T22:51:33.230Z,69.65
2023-05-24T22:54:01.389Z,69.91
2023-05-24T22:56:31.624Z,69.95
2023-05-24T22:59:00.878Z,70.11
2023-05-24T23:01:29.078Z,70.16
2023-05-24T23:04:11.538Z,70.06
2023-05-24T23:06:46.815Z,70.41
2023-05-24T23:09:17.052Z,70.63
2023-05-24T23:11:45.585Z,71.45
2023-05-24T23:14:16.416Z,71.24
2023-05-24T23:16:44.568Z,71.16
2023-05-24T23:19:17.539Z,71.12
2023-05-24T23:21:46.045Z,71.45
2023-05-24T23:24:15.372Z,71.71
2023-05-24T23:26:43.791Z,71.43
2023-05-24T23:29:11.978Z,71.50
2023-05-24T23:31:40.453Z,71.57
2023-05-24T23:34:08.934Z,71.75
2023-05-24T23:36:37.843Z,71.88
2023-05-24T23:39:06.256Z,71.91
2023-05-24T23:41:34.659Z,72.12
2023-05-24T23:44:03.326Z,71.97
2023-05-24T23:46:32.643Z,71.94
2023-05-24T23:49:01.382Z,71.98
2023-05-24T23:51:33.112Z,72.10
2023-05-24T23:54:02.394Z,72.00
2023-05-24T23:56:31.497Z,71.79
2023-05-24T23:58:59.801Z,71.80
